Time;durP1;ratioP1;P1;durP2;ratioP2;P2;SDS_P1;SDS_P2;PMS_P1;PMS_P2;Temp;Humidity;BMP_temperature;BMP_pressure;BME280_temperature;BME280_humidity;BME280_pressure;Samples;Min_cycle;Max_cycle;Signal;HPM_P1;HPM_P2
2023/01/24 00:05:59;;;;;;;108.90;40.60;;;;;;;0.85;100.00;100822.63;270709;1272;22411;-92
2023/01/24 00:12:02;;;;;;;121.20;41.80;;;;;;;0.85;100.00;100818.42;273046;1274;22302;-92
2023/01/24 00:18:06;;;;;;;124.60;43.60;;;;;;;0.87;100.00;100818.26;272905;1271;22352;-91
2023/01/24 00:24:16;;;;;;;108.40;40.80;;;;;;;0.89;100.00;100817.09;272713;1271;22386;-93
2023/01/24 00:30:18;;;;;;;108.80;41.00;;;;;;;0.92;100.00;100816.98;272658;1271;22252;-91
2023/01/24 00:36:21;;;;;;;112.00;40.50;;;;;;;0.94;100.00;100819.25;272924;1271;23185;-92
2023/01/24 00:42:26;;;;;;;105.10;42.50;;;;;;;0.96;100.00;100826.75;272909;1271;23289;-92
2023/01/24 00:48:29;;;;;;;100.50;40.30;;;;;;;0.96;100.00;100830.14;273121;1272;22238;-92
2023/01/24 00:54:33;;;;;;;96.80;37.00;;;;;;;0.97;100.00;100833.39;269941;1272;22533;-93
2023/01/24 01:00:43;;;;;;;101.50;41.90;;;;;;;1.00;100.00;100833.55;269199;1272;23411;-92
2023/01/24 01:06:48;;;;;;;111.50;40.70;;;;;;;1.01;100.00;100829.08;270167;1272;22248;-92
2023/01/24 01:12:53;;;;;;;95.80;38.20;;;;;;;1.00;100.00;100824.70;270681;1271;25277;-92
2023/01/24 01:18:55;;;;;;;100.90;38.70;;;;;;;0.99;100.00;100833.50;271469;1271;24376;-93
2023/01/24 01:25:06;;;;;;;94.80;37.50;;;;;;;1.01;100.00;100838.50;270677;1268;23320;-92
2023/01/24 01:31:08;;;;;;;100.30;39.60;;;;;;;1.03;100.00;100837.49;271453;1270;22547;-91
2023/01/24 01:37:14;;;;;;;102.60;38.70;;;;;;;1.03;100.00;100839.39;269522;1272;22609;-91
2023/01/24 01:43:20;;;;;;;94.10;37.00;;;;;;;1.03;100.00;100841.92;272799;1270;22419;-91
2023/01/24 01:49:26;;;;;;;86.50;35.40;;;;;;;1.04;100.00;100843.70;270483;1272;25336;-91
2023/01/24 01:55:39;;;;;;;92.80;36.30;;;;;;;1.02;100.00;100845.00;270125;1270;22408;-92
2023/01/24 02:02:06;;;;;;;89.20;36.10;;;;;;;1.01;100.00;100847.48;269301;1271;22460;-93
2023/01/24 02:08:22;;;;;;;94.00;37.30;;;;;;;1.00;100.00;100852.05;270179;1272;22559;-91
2023/01/24 02:20:55;;;;;;;88.50;37.20;;;;;;;0.98;100.00;100845.04;269311;1272;22645;-91
2023/01/24 02:26:57;;;;;;;89.20;33.10;;;;;;;0.99;100.00;100846.21;270609;1272;23607;-91
2023/01/24 02:33:03;;;;;;;74.70;29.30;;;;;;;0.97;100.00;100839.59;272969;1272;22232;-91
2023/01/24 02:39:17;;;;;;;70.90;29.40;;;;;;;0.96;100.00;100833.54;272783;1272;23579;-90
2023/01/24 02:45:22;;;;;;;63.50;26.80;;;;;;;0.95;100.00;100832.14;270850;1272;22167;-91
2023/01/24 02:58:07;;;;;;;57.70;23.50;;;;;;;0.94;100.00;100830.42;272897;1272;22387;-91
2023/01/24 03:04:13;;;;;;;51.50;24.10;;;;;;;0.94;100.00;100837.33;272677;1272;25314;-92
2023/01/24 03:10:19;;;;;;;52.80;23.70;;;;;;;0.93;100.00;100848.05;270129;1272;22531;-91
2023/01/24 03:35:27;;;;;;;55.00;22.40;;;;;;;0.90;100.00;100860.62;271483;1272;22534;-92
2023/01/24 03:41:29;;;;;;;55.90;23.50;;;;;;;0.91;100.00;100862.29;269726;1272;24016;-91
2023/01/24 03:47:34;;;;;;;56.20;23.40;;;;;;;0.92;100.00;100864.77;271123;1272;22575;-91
2023/01/24 03:53:38;;;;;;;54.70;21.50;;;;;;;0.92;100.00;100862.40;269297;1271;24254;-90
2023/01/24 03:59:40;;;;;;;54.00;23.20;;;;;;;0.92;100.00;100858.89;269770;1272;25377;-92
2023/01/24 04:05:42;;;;;;;55.70;22.80;;;;;;;0.92;100.00;100857.91;269078;1272;22539;-92
2023/01/24 04:11:46;;;;;;;60.90;24.90;;;;;;;0.93;100.00;100856.95;269249;1272;22573;-91
2023/01/24 04:17:56;;;;;;;72.80;27.00;;;;;;;0.93;100.00;100855.12;271405;1272;22320;-91
2023/01/24 04:24:02;;;;;;;63.50;25.90;;;;;;;0.94;100.00;100854.09;271412;1272;22553;-91
2023/01/24 04:30:07;;;;;;;60.20;23.90;;;;;;;0.95;100.00;100844.39;269079;1272;22648;-91
2023/01/24 04:36:12;;;;;;;59.30;22.80;;;;;;;0.96;100.00;100842.61;269637;1271;22597;-91
2023/01/24 04:42:15;;;;;;;65.90;27.50;;;;;;;0.96;100.00;100846.17;268850;1272;22582;-91
2023/01/24 04:48:19;;;;;;;59.60;23.10;;;;;;;0.95;100.00;100851.94;270942;1270;23131;-92
2023/01/24 04:54:22;;;;;;;59.60;22.90;;;;;;;0.94;100.00;100856.52;272270;1271;22411;-91
2023/01/24 05:00:24;;;;;;;48.30;19.70;;;;;;;0.94;100.00;100855.38;271687;1272;23069;-92
2023/01/24 05:06:28;;;;;;;48.70;20.70;;;;;;;0.95;100.00;100854.20;271654;1272;22876;-91
2023/01/24 05:12:30;;;;;;;48.50;20.80;;;;;;;0.95;100.00;100858.14;272596;1272;23130;-90
2023/01/24 05:18:35;;;;;;;49.80;20.80;;;;;;;0.95;100.00;100867.52;272542;1270;22509;-90
2023/01/24 05:24:37;;;;;;;53.20;20.00;;;;;;;0.95;100.00;100866.66;272513;1272;23496;-91
2023/01/24 05:30:41;;;;;;;47.70;19.00;;;;;;;0.95;100.00;100863.59;272841;1272;22388;-91
2023/01/24 05:36:54;;;;;;;44.80;19.70;;;;;;;0.95;100.00;100870.92;271711;1272;22424;-92
2023/01/24 05:42:56;;;;;;;49.20;20.30;;;;;;;0.94;100.00;100873.18;272613;1272;141129;-92
2023/01/24 05:48:59;;;;;;;44.00;19.30;;;;;;;0.94;100.00;100875.55;273232;1272;23474;-91
2023/01/24 05:55:00;;;;;;;45.40;18.30;;;;;;;0.95;100.00;100882.31;271084;1272;22577;-90
2023/01/24 06:01:13;;;;;;;34.90;15.10;;;;;;;0.94;100.00;100881.27;272449;1271;22881;-92
2023/01/24 06:07:18;;;;;;;32.10;14.20;;;;;;;0.94;100.00;100885.59;271769;1272;22214;-90
2023/01/24 06:13:21;;;;;;;30.80;12.20;;;;;;;0.96;100.00;100889.91;271993;1272;23155;-93
2023/01/24 06:19:24;;;;;;;27.90;12.80;;;;;;;0.96;100.00;100894.80;272802;1273;24359;-91
2023/01/24 06:25:26;;;;;;;32.70;14.80;;;;;;;0.96;100.00;100901.34;272865;1265;22407;-91
2023/01/24 06:31:43;;;;;;;32.00;15.10;;;;;;;0.94;100.00;100911.64;272878;1272;22997;-91
2023/01/24 06:37:51;;;;;;;39.40;15.90;;;;;;;0.93;100.00;100915.58;272671;1272;22406;-91
2023/01/24 06:43:53;;;;;;;43.30;18.30;;;;;;;0.93;100.00;100915.23;271578;1272;22401;-92
2023/01/24 06:49:54;;;;;;;37.20;16.20;;;;;;;0.92;100.00;100919.19;268927;1272;23667;-92
2023/01/24 06:55:59;;;;;;;38.40;17.90;;;;;;;0.91;100.00;100923.88;271387;1270;22425;-92
2023/01/24 07:02:01;;;;;;;48.00;19.20;;;;;;;0.90;100.00;100927.53;269567;1272;22659;-91
2023/01/24 07:08:03;;;;;;;45.10;19.60;;;;;;;0.90;100.00;100928.73;269214;1272;22644;-92
2023/01/24 07:14:06;;;;;;;54.10;20.90;;;;;;;0.91;100.00;100933.80;269565;1272;24217;-91
2023/01/24 07:20:09;;;;;;;60.00;24.80;;;;;;;0.92;100.00;100939.73;270171;1272;22525;-92
2023/01/24 07:26:12;;;;;;;66.30;25.50;;;;;;;0.94;100.00;100946.74;269856;1272;25357;-92
2023/01/24 07:32:15;;;;;;;84.60;27.80;;;;;;;0.94;100.00;100952.63;269537;1272;23646;-92
2023/01/24 07:38:19;;;;;;;91.90;29.50;;;;;;;0.94;100.00;100957.43;271749;1272;23424;-91
2023/01/24 07:44:21;;;;;;;91.20;27.10;;;;;;;0.94;100.00;100960.99;269550;1272;23411;-93
2023/01/24 07:50:33;;;;;;;79.70;25.40;;;;;;;0.96;100.00;100963.90;270244;1272;22575;-92
2023/01/24 07:56:38;;;;;;;68.90;23.00;;;;;;;0.97;100.00;100974.10;270189;1272;22570;-92
2023/01/24 08:02:44;;;;;;;61.90;22.90;;;;;;;0.99;100.00;100982.47;269697;1270;22557;-91
2023/01/24 08:08:49;;;;;;;60.50;21.40;;;;;;;1.00;100.00;100987.59;269790;1271;45447;-92
2023/01/24 08:14:51;;;;;;;56.70;22.10;;;;;;;1.02;100.00;100987.33;270384;1271;22571;-92
2023/01/24 08:20:56;;;;;;;62.50;22.10;;;;;;;1.03;100.00;100991.39;271682;1272;23249;-92
2023/01/24 08:26:59;;;;;;;56.80;18.80;;;;;;;1.04;100.00;100992.48;271609;1272;22577;-92
2023/01/24 08:33:03;;;;;;;55.30;20.30;;;;;;;1.05;100.00;100996.09;270821;1270;22561;-92
2023/01/24 08:39:05;;;;;;;51.70;18.70;;;;;;;1.06;100.00;101000.73;270651;1272;25500;-93
2023/01/24 08:45:10;;;;;;;44.40;18.50;;;;;;;1.06;100.00;101004.83;269747;1270;22576;-91
2023/01/24 08:51:14;;;;;;;52.60;20.10;;;;;;;1.06;100.00;101007.90;270497;1270;22586;-92
2023/01/24 08:57:16;;;;;;;49.00;18.20;;;;;;;1.08;100.00;101007.64;270491;1270;22568;-93
2023/01/24 09:03:19;;;;;;;48.90;19.60;;;;;;;1.10;100.00;101011.27;270513;1254;22545;-91
2023/01/24 09:09:21;;;;;;;48.10;18.80;;;;;;;1.11;100.00;101012.82;270419;1270;25063;-92
2023/01/24 09:15:24;;;;;;;59.40;21.20;;;;;;;1.12;100.00;101017.48;269778;1270;25366;-92
2023/01/24 09:21:26;;;;;;;53.90;19.60;;;;;;;1.13;100.00;101014.29;270035;1270;23555;-92
2023/01/24 09:27:28;;;;;;;59.40;22.40;;;;;;;1.12;100.00;101021.04;270875;1260;22495;-91
2023/01/24 09:33:32;;;;;;;68.10;24.80;;;;;;;1.12;100.00;101020.34;270944;1270;23025;-93
2023/01/24 09:39:35;;;;;;;73.10;25.50;;;;;;;1.14;100.00;101018.55;270619;1270;22472;-91
2023/01/24 09:46:16;;;;;;;71.90;24.70;;;;;;;1.16;100.00;101018.95;271546;1270;23544;-93
2023/01/24 09:52:43;;;;;;;67.20;25.10;;;;;;;1.20;100.00;101014.64;272364;1270;22585;-93
2023/01/24 09:58:55;;;;;;;68.60;26.30;;;;;;;1.23;100.00;101009.52;272131;1270;22560;-92
2023/01/24 10:04:59;;;;;;;67.90;25.20;;;;;;;1.27;100.00;101007.05;270744;1270;26620;-91
2023/01/24 10:11:04;;;;;;;67.80;25.50;;;;;;;1.29;100.00;101004.21;269379;1270;22525;-91
2023/01/24 10:17:27;;;;;;;67.50;25.40;;;;;;;1.32;100.00;100998.55;269305;1270;22535;-91
2023/01/24 10:23:40;;;;;;;74.50;26.00;;;;;;;1.34;100.00;100999.41;270381;1270;23555;-91
2023/01/24 10:29:43;;;;;;;65.80;25.50;;;;;;;1.35;100.00;101002.17;271013;1270;23415;-92
2023/01/24 10:36:08;;;;;;;71.70;25.40;;;;;;;1.35;100.00;100997.90;268942;1270;22578;-93
2023/01/24 10:42:25;;;;;;;69.50;24.60;;;;;;;1.35;100.00;100995.15;270760;1270;22503;-93
2023/01/24 10:48:37;;;;;;;60.60;21.60;;;;;;;1.33;100.00;100994.98;270244;1270;23421;-93
2023/01/24 10:54:52;;;;;;;54.20;22.00;;;;;;;1.30;100.00;100992.88;272204;1269;22584;-94
2023/01/24 11:01:17;;;;;;;63.30;24.10;;;;;;;1.30;100.00;100987.60;272278;1270;23582;-93
2023/01/24 11:07:35;;;;;;;60.70;24.20;;;;;;;1.30;100.00;100983.81;271367;1257;22648;-92
2023/01/24 11:13:40;;;;;;;58.60;24.60;;;;;;;1.30;100.00;100979.02;270012;1270;23413;-93
2023/01/24 11:19:44;;;;;;;56.90;22.90;;;;;;;1.32;100.00;100973.02;270125;1270;24284;-92
2023/01/24 11:25:54;;;;;;;50.40;18.80;;;;;;;1.32;100.00;100971.52;269859;1270;23553;-92
2023/01/24 11:32:03;;;;;;;52.70;20.50;;;;;;;1.31;100.00;100961.86;269516;1270;22215;-93
2023/01/24 11:38:39;;;;;;;48.60;18.00;;;;;;;1.31;100.00;100955.65;269793;1270;23358;-93
2023/01/24 11:44:54;;;;;;;46.90;16.90;;;;;;;1.35;100.00;100952.14;269552;1270;24212;-92
2023/01/24 11:51:17;;;;;;;47.90;17.70;;;;;;;1.37;100.00;100946.80;272376;1270;23196;-91
2023/01/24 11:57:56;;;;;;;43.90;16.60;;;;;;;1.39;100.00;100943.35;271511;1270;22600;-92
2023/01/24 12:04:34;;;;;;;40.30;16.70;;;;;;;1.41;100.00;100943.41;270871;1270;23311;-91
2023/01/24 12:10:56;;;;;;;42.90;15.70;;;;;;;1.41;100.00;100942.77;272426;1270;22546;-91
2023/01/24 12:17:37;;;;;;;40.50;16.00;;;;;;;1.38;100.00;100938.61;270952;1270;27508;-92
2023/01/24 12:24:01;;;;;;;38.40;14.60;;;;;;;1.38;100.00;100934.48;271382;1264;22233;-91
2023/01/24 12:30:12;;;;;;;33.50;13.70;;;;;;;1.37;100.00;100932.16;270662;1270;22395;-89
2023/01/24 12:36:46;;;;;;;39.00;15.60;;;;;;;1.33;100.00;100926.19;270051;1270;23079;-91
2023/01/24 12:43:54;;;;;;;39.10;16.40;;;;;;;1.35;100.00;100922.30;261610;1305;545107;-89
2023/01/24 12:50:09;;;;;;;34.80;15.90;;;;;;;1.33;100.00;100930.11;267226;1279;22746;-89
2023/01/24 12:56:21;;;;;;;33.40;14.50;;;;;;;1.28;100.00;100935.08;267118;1278;396762;-91
2023/01/24 13:02:43;;;;;;;36.70;15.20;;;;;;;1.25;100.00;100939.43;267737;1277;22564;-90
2023/01/24 13:08:59;;;;;;;42.50;17.40;;;;;;;1.21;100.00;100944.71;268822;1270;25546;-89
2023/01/24 13:15:02;;;;;;;47.50;19.10;;;;;;;1.16;100.00;100951.67;268671;1270;22530;-91
2023/01/24 13:21:11;;;;;;;33.90;14.40;;;;;;;1.12;100.00;100957.74;268862;1270;22530;-91
2023/01/24 13:27:39;;;;;;;33.60;14.80;;;;;;;1.09;100.00;100959.14;268981;1270;22688;-90
2023/01/24 13:33:54;;;;;;;33.70;13.70;;;;;;;1.06;100.00;100961.03;269194;1270;22699;-89
2023/01/24 13:40:21;;;;;;;26.80;13.00;;;;;;;1.05;100.00;100960.91;269048;1271;22573;-90
2023/01/24 13:46:46;;;;;;;27.20;11.70;;;;;;;1.04;100.00;100962.69;269467;1270;22554;-90
2023/01/24 13:52:54;;;;;;;40.70;16.30;;;;;;;1.02;100.00;100966.89;269742;1273;22987;-90
2023/01/24 13:58:56;;;;;;;34.70;15.20;;;;;;;1.03;100.00;100981.78;269722;1270;24272;-90
2023/01/24 14:04:59;;;;;;;36.80;16.30;;;;;;;1.03;100.00;100986.59;269378;1270;22536;-91
2023/01/24 14:11:13;;;;;;;31.20;14.90;;;;;;;1.01;100.00;100990.79;269688;1270;22522;-92
2023/01/24 14:17:39;;;;;;;27.10;11.80;;;;;;;1.00;100.00;100989.64;269524;1270;24229;-92
2023/01/24 14:23:44;;;;;;;23.10;10.40;;;;;;;1.00;100.00;100995.52;269585;1260;22523;-90
2023/01/24 14:29:49;;;;;;;22.80;12.00;;;;;;;0.98;100.00;100998.86;269405;1270;25280;-91
2023/01/24 14:36:15;;;;;;;26.10;14.70;;;;;;;0.96;100.00;101007.59;269421;1270;23258;-91
2023/01/24 14:42:17;;;;;;;24.40;12.30;;;;;;;0.93;100.00;101011.85;269656;1270;22565;-92
2023/01/24 14:48:24;;;;;;;30.80;15.70;;;;;;;0.90;100.00;101019.05;269516;1270;22556;-92
2023/01/24 14:54:26;;;;;;;24.90;11.20;;;;;;;0.87;100.00;101026.04;269300;1273;22558;-90
2023/01/24 15:00:32;;;;;;;26.70;13.60;;;;;;;0.83;100.00;101035.08;269041;1270;23791;-90
2023/01/24 15:06:34;;;;;;;25.80;13.30;;;;;;;0.80;100.00;101039.06;269163;1273;22710;-91
2023/01/24 15:12:36;;;;;;;22.50;11.80;;;;;;;0.77;100.00;101042.33;269141;1260;22713;-91
2023/01/24 15:18:45;;;;;;;22.40;11.20;;;;;;;0.74;100.00;101043.17;269254;1263;22678;-90
2023/01/24 15:24:58;;;;;;;21.70;11.70;;;;;;;0.71;100.00;101039.12;269059;1270;22629;-91
2023/01/24 15:31:01;;;;;;;28.20;12.50;;;;;;;0.66;100.00;101041.95;268980;1270;22569;-92
2023/01/24 15:37:03;;;;;;;26.90;12.60;;;;;;;0.63;100.00;101046.02;268922;1272;25364;-90
2023/01/24 15:49:33;;;;;;;26.10;13.40;;;;;;;0.60;100.00;101047.95;268947;1271;22556;-91
2023/01/24 15:55:39;;;;;;;22.40;11.50;;;;;;;0.58;100.00;101046.42;269338;1270;23137;-92
2023/01/24 16:01:43;;;;;;;32.30;16.10;;;;;;;0.58;100.00;101045.29;269592;1263;22542;-91
2023/01/24 16:07:45;;;;;;;52.20;20.70;;;;;;;0.57;100.00;101039.35;269384;1271;22554;-91
2023/01/24 16:13:55;;;;;;;25.00;12.80;;;;;;;0.57;100.00;101035.04;268836;1270;22581;-91
2023/01/24 16:19:57;;;;;;;55.10;22.70;;;;;;;0.57;100.00;101033.47;269843;1263;23663;-92
2023/01/24 16:26:36;;;;;;;33.10;17.10;;;;;;;0.61;100.00;101041.91;262693;1304;546166;-91
2023/01/24 16:32:40;;;;;;;28.20;15.00;;;;;;;0.60;100.00;101044.64;268378;1281;24813;-90
2023/01/24 16:38:45;;;;;;;26.70;13.50;;;;;;;0.58;100.00;101041.84;266790;1278;1009928;-92
2023/01/24 16:44:55;;;;;;;27.50;13.40;;;;;;;0.59;100.00;101043.89;267381;1278;23112;-91
2023/01/24 16:50:59;;;;;;;25.30;14.40;;;;;;;0.58;100.00;101047.66;267747;1278;22569;-91
2023/01/24 16:57:01;;;;;;;24.10;13.40;;;;;;;0.57;100.00;101047.70;266897;1278;25186;-92
2023/01/24 17:03:03;;;;;;;25.60;13.80;;;;;;;0.55;100.00;101041.56;267637;1276;26443;-91
2023/01/24 17:09:08;;;;;;;25.70;14.10;;;;;;;0.54;100.00;101032.70;267419;1275;22581;-91
2023/01/24 17:15:10;;;;;;;26.30;14.20;;;;;;;0.52;100.00;101016.80;267616;1275;23417;-90
2023/01/24 17:21:14;;;;;;;34.20;19.10;;;;;;;0.52;100.00;101014.54;267262;1275;22542;-92
2023/01/24 17:27:16;;;;;;;31.00;17.80;;;;;;;0.52;100.00;101026.27;268575;1269;22584;-90
2023/01/24 17:33:18;;;;;;;31.90;18.70;;;;;;;0.51;100.00;101030.32;268353;1269;22548;-93
2023/01/24 17:39:19;;;;;;;27.80;15.40;;;;;;;0.50;100.00;101024.54;268587;1269;22646;-91
2023/01/24 17:45:22;;;;;;;32.50;15.40;;;;;;;0.51;100.00;101019.80;268519;1269;22537;-91
2023/01/24 17:51:25;;;;;;;30.50;15.70;;;;;;;0.50;100.00;101016.93;268199;1269;24302;-91
2023/01/24 17:57:30;;;;;;;33.80;18.30;;;;;;;0.50;100.00;101008.91;268853;1268;22550;-91
2023/01/24 18:03:34;;;;;;;31.90;17.10;;;;;;;0.49;100.00;101005.50;269285;1266;23346;-93
2023/01/24 18:09:37;;;;;;;32.80;17.70;;;;;;;0.48;100.00;101007.23;269160;1265;24360;-91
2023/01/24 18:15:39;;;;;;;31.60;16.80;;;;;;;0.48;100.00;101006.25;269359;1266;22485;-92
2023/01/24 18:21:41;;;;;;;30.60;16.80;;;;;;;0.47;100.00;101012.45;268987;1267;24198;-91
2023/01/24 18:27:44;;;;;;;31.30;15.50;;;;;;;0.48;100.00;101008.52;268741;1267;22765;-91
2023/01/24 18:33:53;;;;;;;31.60;16.10;;;;;;;0.48;100.00;101005.08;269898;1267;23000;-92
2023/01/24 18:39:56;;;;;;;25.80;14.00;;;;;;;0.48;100.00;100994.50;273860;1266;22415;-91
2023/01/24 18:46:03;;;;;;;23.00;13.40;;;;;;;0.49;100.00;100997.80;273842;1266;22331;-93
2023/01/24 18:52:04;;;;;;;26.60;13.80;;;;;;;0.50;100.00;100991.71;270743;1267;22567;-91
2023/01/24 18:58:06;;;;;;;27.80;13.60;;;;;;;0.51;100.00;100987.36;269643;1266;25499;-90
2023/01/24 19:04:09;;;;;;;29.80;16.50;;;;;;;0.52;100.00;100984.73;270075;1268;22561;-91
2023/01/24 19:10:13;;;;;;;32.20;18.20;;;;;;;0.52;100.00;100985.27;269902;1266;24201;-91
2023/01/24 19:16:15;;;;;;;42.50;21.50;;;;;;;0.50;100.00;100994.68;269812;1266;22590;-92
2023/01/24 19:22:16;;;;;;;46.40;25.80;;;;;;;0.50;100.00;100999.09;269929;1266;22520;-91
2023/01/24 19:28:18;;;;;;;37.30;19.30;;;;;;;0.49;100.00;100996.73;269840;1262;23069;-94
2023/01/24 19:34:22;;;;;;;37.30;18.50;;;;;;;0.49;100.00;101000.02;269900;1266;22553;-91
2023/01/24 19:40:23;;;;;;;23.10;13.40;;;;;;;0.48;100.00;101007.88;269855;1266;23422;-90
2023/01/24 19:46:26;;;;;;;20.20;11.10;;;;;;;0.46;100.00;101015.39;269797;1266;22528;-91
2023/01/24 19:52:29;;;;;;;20.40;10.20;;;;;;;0.44;100.00;101020.73;269671;1266;22543;-90
2023/01/24 19:58:31;;;;;;;28.70;13.50;;;;;;;0.44;100.00;101023.96;269668;1267;22561;-92
2023/01/24 20:04:34;;;;;;;31.10;15.50;;;;;;;0.43;100.00;101030.95;269660;1267;22562;-92
2023/01/24 20:10:38;;;;;;;24.40;13.60;;;;;;;0.43;100.00;101032.63;269894;1266;25266;-91
2023/01/24 20:16:39;;;;;;;25.10;12.10;;;;;;;0.43;100.00;101029.77;269977;1266;23879;-92
2023/01/24 20:22:41;;;;;;;26.50;14.40;;;;;;;0.42;100.00;101029.34;269698;1267;23490;-91
2023/01/24 20:28:42;;;;;;;18.60;10.20;;;;;;;0.40;100.00;101024.64;269920;1267;22584;-91
2023/01/24 20:34:45;;;;;;;25.10;11.40;;;;;;;0.39;100.00;101023.02;270110;1267;22542;-91
2023/01/24 20:40:46;;;;;;;21.80;11.50;;;;;;;0.38;100.00;101015.25;270115;1268;22577;-91
2023/01/24 20:46:49;;;;;;;22.40;12.20;;;;;;;0.36;100.00;101008.98;269993;1267;22527;-94
2023/01/24 20:52:50;;;;;;;21.40;11.60;;;;;;;0.36;100.00;101007.70;270135;1266;22543;-90
2023/01/24 20:58:53;;;;;;;21.50;10.60;;;;;;;0.36;100.00;101006.61;269598;1252;22554;-90
2023/01/24 21:04:54;;;;;;;23.50;11.60;;;;;;;0.36;100.00;101004.88;270048;1267;22543;-93
2023/01/24 21:10:55;;;;;;;18.60;9.60;;;;;;;0.35;100.00;100999.38;270130;1266;22557;-91
2023/01/24 21:16:57;;;;;;;22.70;11.50;;;;;;;0.34;100.00;100998.14;270277;1268;25303;-92
2023/01/24 21:22:58;;;;;;;18.20;9.10;;;;;;;0.34;100.00;100996.73;270357;1266;23923;-93
2023/01/24 21:29:00;;;;;;;16.80;9.40;;;;;;;0.33;100.00;100993.18;269987;1266;23460;-90
2023/01/24 21:35:01;;;;;;;15.40;8.30;;;;;;;0.33;100.00;100992.31;269625;1268;26665;-90
2023/01/24 21:47:27;;;;;;;18.70;9.20;;;;;;;0.28;100.00;100979.08;269814;1267;22528;-90
2023/01/24 21:59:50;;;;;;;11.30;6.40;;;;;;;0.22;100.00;100974.35;270255;1268;25309;-90
2023/01/24 22:05:53;;;;;;;11.60;6.00;;;;;;;0.21;100.00;100981.19;273830;1268;22459;-91
2023/01/24 22:11:54;;;;;;;12.50;6.70;;;;;;;0.22;100.00;100983.67;273961;1268;22353;-90
2023/01/24 22:17:56;;;;;;;16.40;8.60;;;;;;;0.22;100.00;100988.52;273901;1258;23041;-91
2023/01/24 22:24:09;;;;;;;15.20;7.60;;;;;;;0.21;100.00;100990.18;273921;1266;22226;-90
2023/01/24 22:30:37;;;;;;;15.60;8.50;;;;;;;0.22;100.00;100993.42;273844;1266;22997;-91
2023/01/24 22:36:38;;;;;;;14.40;8.00;;;;;;;0.21;100.00;100996.60;273870;1266;22347;-91
2023/01/24 22:42:41;;;;;;;13.30;7.60;;;;;;;0.21;100.00;100994.77;273881;1268;22343;-93
2023/01/24 22:48:44;;;;;;;12.80;8.10;;;;;;;0.18;100.00;100994.15;273930;1268;22350;-92
2023/01/24 22:54:47;;;;;;;13.10;7.90;;;;;;;0.16;100.00;100994.72;273749;1266;22215;-90
2023/01/24 23:00:47;;;;;;;15.10;8.20;;;;;;;0.15;100.00;100997.95;273932;1266;22364;-91
2023/01/24 23:06:49;;;;;;;15.20;8.30;;;;;;;0.15;100.00;100996.82;273944;1267;22323;-90
2023/01/24 23:26:06;;;;;;;19.50;10.00;;;;;;;0.16;100.00;100992.84;273951;1268;22300;-90
2023/01/24 23:32:31;;;;;;;18.00;10.60;;;;;;;0.18;100.00;100991.45;273997;1267;22683;-91
2023/01/24 23:38:34;;;;;;;17.80;9.40;;;;;;;0.19;100.00;100991.41;273932;1268;23486;-93
2023/01/24 23:44:35;;;;;;;13.70;8.00;;;;;;;0.21;100.00;100984.79;273970;1266;22334;-91
2023/01/24 23:50:39;;;;;;;15.90;7.80;;;;;;;0.22;100.00;100982.59;274025;1266;22349;-93
2023/01/24 23:56:40;;;;;;;12.80;6.70;;;;;;;0.21;100.00;100978.33;273959;1266;22353;-90
